createdAt,value
2019-03-25T03:13:21.826Z,3.90
2019-03-25T03:18:49.574Z,3.40
2019-03-25T03:24:11.116Z,4.80
2019-03-25T03:29:35.076Z,14.80
2019-03-25T03:34:56.825Z,6.40
2019-03-25T03:40:18.587Z,8.57
2019-03-25T03:45:40.360Z,9.70
2019-03-25T03:51:02.312Z,6.43
2019-03-25T03:56:24.413Z,9.30
2019-03-25T04:01:46.152Z,7.33
2019-03-25T04:07:08.011Z,5.90
2019-03-25T04:12:30.068Z,6.20
2019-03-25T04:17:51.886Z,6.83
2019-03-25T04:23:13.742Z,5.07
2019-03-25T04:28:35.689Z,5.27
2019-03-25T04:33:57.657Z,6.17
2019-03-25T04:39:19.635Z,7.00
2019-03-25T04:44:41.189Z,7.07
2019-03-25T04:50:03.231Z,12.57
2019-03-25T04:55:24.678Z,12.87
2019-03-25T05:00:46.708Z,10.47
2019-03-25T05:06:08.594Z,11.83
2019-03-25T05:11:31.034Z,6.87
2019-03-25T05:16:52.847Z,6.97
2019-03-25T05:22:14.660Z,6.80
2019-03-25T05:27:36.581Z,9.47
2019-03-25T05:32:58.501Z,8.07
2019-03-25T05:38:20.069Z,7.90
2019-03-25T05:43:42.141Z,11.03
2019-03-25T05:49:03.803Z,6.07
2019-03-25T05:54:25.619Z,7.08
2019-03-25T05:59:47.611Z,4.73
2019-03-25T06:05:09.513Z,5.20
2019-03-25T06:10:31.184Z,6.55
2019-03-25T06:15:52.700Z,7.20
2019-03-25T06:21:14.489Z,6.60
2019-03-25T06:26:39.345Z,6.25
2019-03-25T06:32:00.683Z,7.00
2019-03-25T06:37:22.468Z,8.88
2019-03-25T06:42:44.261Z,7.70
2019-03-25T06:48:06.416Z,8.87
2019-03-25T06:53:28.496Z,6.80
2019-03-25T06:58:50.297Z,6.35
2019-03-25T07:04:12.271Z,6.00
2019-03-25T07:09:34.000Z,6.72
2019-03-25T07:14:55.748Z,6.00
2019-03-25T07:20:17.720Z,7.40
2019-03-25T07:25:39.853Z,5.80
2019-03-25T07:31:01.963Z,7.10
2019-03-25T07:36:23.917Z,5.53
2019-03-25T07:41:45.594Z,6.45
2019-03-25T07:47:07.280Z,6.25
2019-03-25T07:52:28.965Z,7.00
2019-03-25T07:57:50.599Z,6.50
2019-03-25T08:03:12.351Z,6.80
2019-03-25T08:08:34.178Z,6.67
2019-03-25T08:13:56.121Z,6.53
2019-03-25T08:19:17.534Z,6.57
2019-03-25T08:24:39.119Z,6.25
2019-03-25T08:30:00.897Z,6.28
2019-03-25T08:35:23.708Z,6.63
2019-03-25T08:40:45.266Z,6.28
2019-03-25T08:46:07.056Z,6.25
2019-03-25T08:51:28.859Z,6.08
2019-03-25T08:56:50.761Z,6.10
2019-03-25T09:02:12.431Z,6.10
2019-03-25T09:07:34.228Z,6.78
2019-03-25T09:12:56.000Z,7.10
2019-03-25T09:18:17.842Z,7.97
2019-03-25T09:23:39.874Z,8.00
2019-03-25T09:29:02.920Z,7.62
2019-03-25T09:34:24.667Z,6.95
2019-03-25T09:39:46.142Z,7.10
2019-03-25T09:45:08.296Z,7.65
2019-03-25T09:50:30.307Z,7.10
2019-03-25T09:55:52.277Z,6.70
2019-03-25T10:01:14.336Z,6.60
2019-03-25T10:06:37.117Z,6.78
2019-03-25T10:11:59.351Z,7.05
2019-03-25T10:17:21.790Z,7.20
2019-03-25T10:22:44.352Z,7.45
2019-03-25T10:28:06.785Z,7.12
2019-03-25T10:33:29.004Z,7.60
2019-03-25T10:38:51.489Z,7.22
2019-03-25T10:44:13.592Z,7.03
2019-03-25T10:49:35.610Z,6.65
2019-03-25T11:00:20.799Z,6.45
2019-03-25T11:05:42.746Z,8.05
2019-03-25T11:11:06.361Z,5.90
2019-03-25T11:16:29.034Z,5.90
2019-03-25T11:21:51.095Z,5.72
2019-03-25T11:27:13.135Z,5.75
2019-03-25T11:32:35.372Z,5.90
2019-03-25T11:37:59.122Z,6.00
2019-03-25T11:43:21.067Z,5.60
2019-03-25T11:48:47.013Z,6.85
2019-03-25T11:54:09.007Z,4.90
2019-03-25T11:59:31.203Z,5.50
2019-03-25T12:04:53.388Z,5.17
2019-03-25T12:10:17.397Z,5.45
2019-03-25T12:15:39.915Z,5.05
2019-03-25T12:21:02.497Z,5.45
2019-03-25T12:26:24.306Z,5.00
2019-03-25T12:31:46.649Z,4.78
2019-03-25T12:37:08.804Z,5.37
2019-03-25T12:42:30.781Z,4.90
2019-03-25T12:47:55.727Z,4.83
2019-03-25T12:53:17.948Z,5.17
2019-03-25T12:58:40.159Z,5.00
2019-03-25T13:04:02.762Z,4.50
2019-03-25T13:09:25.019Z,5.70
2019-03-25T13:14:46.948Z,5.67
2019-03-25T13:20:09.141Z,5.05
2019-03-25T13:25:31.946Z,4.80
2019-03-25T13:30:54.338Z,5.10
2019-03-25T13:36:16.590Z,4.62
2019-03-25T13:41:38.439Z,4.60
2019-03-25T13:47:00.457Z,4.60
2019-03-25T13:52:22.263Z,5.00
2019-03-25T13:57:44.337Z,5.35
2019-03-25T14:03:07.057Z,8.03
2019-03-25T14:08:36.923Z,5.20
2019-03-25T14:14:00.279Z,5.00
2019-03-25T14:19:23.110Z,4.72
2019-03-25T14:24:45.343Z,4.15
2019-03-25T14:30:14.351Z,4.62
2019-03-25T14:35:55.699Z,4.60
2019-03-25T14:41:19.393Z,6.05
2019-03-25T14:46:49.006Z,4.20
2019-03-25T14:52:20.470Z,5.37
2019-03-25T14:58:15.161Z,5.67
2019-03-25T15:03:53.860Z,6.35
2019-03-25T15:10:06.708Z,5.00
2019-03-25T15:22:48.430Z,5.22
2019-03-25T15:35:11.704Z,4.58
2019-03-25T15:47:15.689Z,6.85
2019-03-25T15:52:44.136Z,6.15
2019-03-25T15:58:08.073Z,10.65
2019-03-25T16:03:50.300Z,10.32
2019-03-25T16:15:59.344Z,14.03
2019-03-25T16:21:31.383Z,14.03
2019-03-25T16:26:53.252Z,22.20
2019-03-25T16:32:27.144Z,22.87
2019-03-25T16:37:50.480Z,27.98
2019-03-25T16:43:15.286Z,19.85
2019-03-25T16:48:38.607Z,28.65
2019-03-25T16:54:21.189Z,40.43
2019-03-25T16:59:43.133Z,28.32
2019-03-25T17:05:05.233Z,26.48
2019-03-25T17:17:07.547Z,25.70
2019-03-25T17:41:36.715Z,41.77
2019-03-25T17:47:05.496Z,46.63
2019-03-25T17:52:30.431Z,43.83
2019-03-25T17:58:16.395Z,45.15
2019-03-25T18:03:43.159Z,25.27
2019-03-25T18:09:11.341Z,28.07
2019-03-25T18:14:35.815Z,19.50
2019-03-25T18:20:05.965Z,16.97
2019-03-25T18:25:31.274Z,36.33
2019-03-25T18:30:59.451Z,14.90
2019-03-25T19:02:58.998Z,8.53
2019-03-25T19:08:46.858Z,9.50
2019-03-25T19:20:47.337Z,7.45
2019-03-25T19:26:12.717Z,27.27
2019-03-25T19:31:34.848Z,12.28
2019-03-25T19:36:57.238Z,9.58
2019-03-25T19:42:19.660Z,9.03
2019-03-25T19:47:42.034Z,9.13
2019-03-25T19:53:04.304Z,9.85
2019-03-25T19:58:26.816Z,8.93
2019-03-25T20:03:48.943Z,9.30
2019-03-25T20:09:11.179Z,7.92
2019-03-25T20:14:33.351Z,7.75
2019-03-25T20:19:55.342Z,9.63
2019-03-25T20:25:17.819Z,9.08
2019-03-25T20:30:39.842Z,7.13
2019-03-25T20:36:01.703Z,48.60
2019-03-25T20:41:24.129Z,9.45
2019-03-25T20:46:46.020Z,7.17
2019-03-25T20:52:08.434Z,8.10
2019-03-25T20:57:30.854Z,5.85
2019-03-25T21:02:53.259Z,8.20
2019-03-25T21:08:15.667Z,6.30
2019-03-25T21:13:37.987Z,10.43
2019-03-25T21:18:59.874Z,6.60
2019-03-25T21:24:22.269Z,5.70
2019-03-25T21:29:44.737Z,5.40
2019-03-25T21:35:07.855Z,5.55
2019-03-25T21:40:31.446Z,6.53
2019-03-25T21:45:53.397Z,5.58
2019-03-25T21:51:24.463Z,5.92
2019-03-25T21:56:46.754Z,6.10
2019-03-25T22:02:09.123Z,5.80
2019-03-25T22:07:31.146Z,5.65
2019-03-25T22:12:53.425Z,6.60
2019-03-25T22:18:15.514Z,6.17
2019-03-25T22:23:37.792Z,6.47
2019-03-25T22:29:00.088Z,5.75
2019-03-25T22:34:22.291Z,6.42
2019-03-25T22:39:44.586Z,6.80
2019-03-25T22:45:06.835Z,5.22
2019-03-25T22:50:31.126Z,5.22
2019-03-25T22:55:53.417Z,8.83
2019-03-25T23:01:16.013Z,6.10
2019-03-25T23:06:38.339Z,5.47
2019-03-25T23:12:00.625Z,5.25
2019-03-25T23:17:22.558Z,5.25
2019-03-25T23:22:44.940Z,4.72
2019-03-25T23:28:07.479Z,5.10
2019-03-25T23:33:29.465Z,5.28
2019-03-25T23:38:51.910Z,4.45
2019-03-25T23:44:13.929Z,4.17
2019-03-25T23:49:35.944Z,4.85
2019-03-25T23:54:58.332Z,5.97
